Flowery Branch, GA (30542)

6:36 AM EST on January 22, 2017 (GMT -0500)
Hideaway Bay Marina | | Change Station
Active Advisory: Flash Flood Watch

Elev 1109 ft 34.18 °N, 83.94 °W | Updated 60 seconds ago

Overcast
Overcast
56.1 °F
Feels Like 56.1 °F
N
8.9
Wind Variable Wind from ESE
Gusts 9.0 mph

Today
High -- | Low -- °F
--% Chance of Precip.
Yesterday
High -- | Low -- °F
Precip. -- in
Pressure 29.61 in
Visibility 0.8 miles
Clouds
Dew Point 55 °F
Humidity 96%
Rainfall 0.27 in
Snow Depth Not available.
7:38 AM 5:56 PM
Waning Crescent, 27% visible
SPECI KGVL 221125Z AUTO 12007KT 3/4SM BR VV002 12/12 A2961 RMK AO2 T01220122
Pressure 29.61 in
Visibility 0.8 miles
Clouds
Dew Point 55 °F
Humidity 96%
Rainfall 0.27 in
Snow Depth Not available.
7:38 AM 5:56 PM
Waning Crescent, 27% visible
SPECI KGVL 221125Z AUTO 12007KT 3/4SM BR VV002 12/12 A2961 RMK AO2 T01220122

Get Your Daily Forecast Email!

Thanks for signing up!

Be on the lookout for a verification email in your inbox.

You'll start receiving the daily forecast at 8 AM.

×

10-Day Weather Forecast

Almanac

Astronomy

Jan. 22, 2017 Rise Set
Actual Time
Civil Twilight
Nautical Twilight
Astronomical Twilight
Moon
Length of Visible Light
Length of Day
Tomorrow will be .
, % of the Moon is Illuminated

Today's Extremes

State Highs State Lows

Community

WunderPhotos

Upload Photos

1,962,540 photos uploaded!

WunderBlog® & News

Nearby

Air Quality

  Air Quality AQ Index Pollutant
Not available.

Snow Depth

Station Depth Elevation

Earthquake Activity

City Distance Mag. Time & Date
Minimum magnitude displayed is 2.5.

Coastal Water Temperatures

Place Temperature

Stations

Nearby Weather Stations

Station Location Temp. Windchill Dew Point Humidity Wind Precip. Elev Updated Type
                   

Watches & Warnings

Flash Flood Watch
Issued: 3:22 AM EST Jan. 22, 2017 – National Weather Service

... Flash Flood Watch remains in effect through this evening...

The Flash Flood Watch continues for

* north and central Georgia.

* Through this evening

* a strong upper level disturbance and abundant Gulf moisture
will combine to create widespread showers and thunderstorms
overnight and well into Sunday. Rainfall will be heavy at
times and may move repeatedly across the same areas. Two to
four inches of rain has already fallen today. Additional
rainfall amounts of one to three inches will be likely... with
locally higher amounts possible.

* Flooding in low lying and flood prone areas will be likely. In
addition... creeks... streams and rivers may overflow their
banks.

Precautionary/preparedness actions...

A Flash Flood Watch means that conditions may develop that lead
to flash flooding. Flash flooding is a very dangerous situation.

You should monitor later forecasts and be prepared to take action
should flash flood warnings be issued.